Bisbee, Arizona
Current Conditions -  °F | °C
As of 7:56 PM on Friday 28 Nov 2014 (Local Time) from KDUG Reporting Station
Clear Clear  
Wind Chill: 47°   Ceiling: Unl
Heat Index: 49°   Visibility: 10mi
Dew Point: 19°   Wind: 5mph
Humidity: 31%   Direction: 150°SSE
Pressure: 30.07"   Gusts: NA
Location:  31.44°N, 109.91°W
Report Text: KDUG 290256Z AUTO 15004KT 10SM CLR 09/M07 A3007 RMK AO2 SLP166 T00941072 53003
Loading
Personal Weather Stations






























Interactive Weather Map New forecast layout! Learn more

10-Day Weather Forecast

Advertisements
Track Severe Weather on mobile